sensor_id;sensor_type;location;lat;lon;timestamp;P1;durP1;ratioP1;P2;durP2;ratioP2
21315;SDS011;10817;55.820;13.030;2023-06-22T00:00:51;7.53;;;3.47;;
21315;SDS011;10817;55.820;13.030;2023-06-22T00:03:19;7.78;;;3.80;;
21315;SDS011;10817;55.820;13.030;2023-06-22T00:05:48;9.13;;;3.50;;
21315;SDS011;10817;55.820;13.030;2023-06-22T00:08:16;6.63;;;3.50;;
21315;SDS011;10817;55.820;13.030;2023-06-22T00:10:44;8.70;;;3.53;;
21315;SDS011;10817;55.820;13.030;2023-06-22T00:13:11;7.50;;;3.90;;
21315;SDS011;10817;55.820;13.030;2023-06-22T00:15:39;9.20;;;3.35;;
21315;SDS011;10817;55.820;13.030;2023-06-22T00:18:06;4.93;;;3.20;;
21315;SDS011;10817;55.820;13.030;2023-06-22T00:20:34;7.03;;;3.95;;
21315;SDS011;10817;55.820;13.030;2023-06-22T00:23:03;8.65;;;3.30;;
21315;SDS011;10817;55.820;13.030;2023-06-22T00:25:34;6.57;;;3.85;;
21315;SDS011;10817;55.820;13.030;2023-06-22T00:28:01;5.20;;;3.72;;
21315;SDS011;10817;55.820;13.030;2023-06-22T00:30:30;9.43;;;4.40;;
21315;SDS011;10817;55.820;13.030;2023-06-22T00:32:57;10.43;;;4.05;;
21315;SDS011;10817;55.820;13.030;2023-06-22T00:35:24;7.38;;;4.53;;
21315;SDS011;10817;55.820;13.030;2023-06-22T00:37:54;10.68;;;4.53;;
21315;SDS011;10817;55.820;13.030;2023-06-22T00:40:27;5.78;;;3.83;;
21315;SDS011;10817;55.820;13.030;2023-06-22T00:42:54;8.10;;;4.70;;
21315;SDS011;10817;55.820;13.030;2023-06-22T00:45:22;12.43;;;4.35;;
21315;SDS011;10817;55.820;13.030;2023-06-22T00:47:49;7.93;;;4.57;;
21315;SDS011;10817;55.820;13.030;2023-06-22T00:50:18;7.72;;;4.28;;
21315;SDS011;10817;55.820;13.030;2023-06-22T00:52:47;6.22;;;3.75;;
21315;SDS011;10817;55.820;13.030;2023-06-22T00:55:16;11.57;;;4.15;;
21315;SDS011;10817;55.820;13.030;2023-06-22T00:57:45;6.82;;;4.05;;
21315;SDS011;10817;55.820;13.030;2023-06-22T01:00:13;7.88;;;3.92;;
21315;SDS011;10817;55.820;13.030;2023-06-22T01:02:42;6.13;;;3.80;;
21315;SDS011;10817;55.820;13.030;2023-06-22T01:05:11;8.30;;;4.30;;
21315;SDS011;10817;55.820;13.030;2023-06-22T01:07:40;9.05;;;4.00;;
21315;SDS011;10817;55.820;13.030;2023-06-22T01:10:10;6.68;;;3.85;;
21315;SDS011;10817;55.820;13.030;2023-06-22T01:12:40;9.13;;;4.20;;
21315;SDS011;10817;55.820;13.030;2023-06-22T01:15:11;7.07;;;4.03;;
21315;SDS011;10817;55.820;13.030;2023-06-22T01:17:41;6.22;;;3.78;;
21315;SDS011;10817;55.820;13.030;2023-06-22T01:20:10;6.32;;;3.83;;
21315;SDS011;10817;55.820;13.030;2023-06-22T01:22:40;6.50;;;4.00;;
21315;SDS011;10817;55.820;13.030;2023-06-22T01:25:13;9.60;;;4.18;;
21315;SDS011;10817;55.820;13.030;2023-06-22T01:27:47;7.03;;;3.88;;
21315;SDS011;10817;55.820;13.030;2023-06-22T01:30:18;5.72;;;3.72;;
21315;SDS011;10817;55.820;13.030;2023-06-22T01:32:48;5.40;;;3.65;;
21315;SDS011;10817;55.820;13.030;2023-06-22T01:35:16;5.90;;;3.58;;
21315;SDS011;10817;55.820;13.030;2023-06-22T01:37:44;10.27;;;4.45;;
21315;SDS011;10817;55.820;13.030;2023-06-22T01:40:11;9.65;;;4.10;;
21315;SDS011;10817;55.820;13.030;2023-06-22T01:42:38;6.93;;;4.05;;
21315;SDS011;10817;55.820;13.030;2023-06-22T01:45:06;9.27;;;4.60;;
21315;SDS011;10817;55.820;13.030;2023-06-22T01:47:38;7.40;;;3.88;;
21315;SDS011;10817;55.820;13.030;2023-06-22T01:50:06;4.80;;;3.95;;
21315;SDS011;10817;55.820;13.030;2023-06-22T01:52:33;6.97;;;3.55;;
21315;SDS011;10817;55.820;13.030;2023-06-22T01:55:00;8.55;;;4.10;;
21315;SDS011;10817;55.820;13.030;2023-06-22T01:57:29;8.48;;;4.15;;
21315;SDS011;10817;55.820;13.030;2023-06-22T01:59:58;7.10;;;4.22;;
21315;SDS011;10817;55.820;13.030;2023-06-22T02:02:27;4.80;;;3.55;;
21315;SDS011;10817;55.820;13.030;2023-06-22T02:04:59;5.32;;;3.80;;
21315;SDS011;10817;55.820;13.030;2023-06-22T02:07:28;6.60;;;3.70;;
21315;SDS011;10817;55.820;13.030;2023-06-22T02:10:00;5.15;;;3.60;;
21315;SDS011;10817;55.820;13.030;2023-06-22T02:12:28;6.30;;;3.40;;
21315;SDS011;10817;55.820;13.030;2023-06-22T02:14:58;4.63;;;3.40;;
21315;SDS011;10817;55.820;13.030;2023-06-22T02:17:26;8.43;;;4.00;;
21315;SDS011;10817;55.820;13.030;2023-06-22T02:19:53;7.90;;;4.00;;
21315;SDS011;10817;55.820;13.030;2023-06-22T02:22:22;9.80;;;5.10;;
21315;SDS011;10817;55.820;13.030;2023-06-22T02:24:50;9.20;;;4.70;;
21315;SDS011;10817;55.820;13.030;2023-06-22T02:27:18;11.55;;;4.70;;
21315;SDS011;10817;55.820;13.030;2023-06-22T02:29:47;11.57;;;5.05;;
21315;SDS011;10817;55.820;13.030;2023-06-22T02:32:14;8.75;;;4.93;;
21315;SDS011;10817;55.820;13.030;2023-06-22T02:34:45;10.10;;;4.78;;
21315;SDS011;10817;55.820;13.030;2023-06-22T02:37:15;8.07;;;5.07;;
21315;SDS011;10817;55.820;13.030;2023-06-22T02:39:43;7.63;;;4.60;;
21315;SDS011;10817;55.820;13.030;2023-06-22T02:42:11;6.70;;;4.97;;
21315;SDS011;10817;55.820;13.030;2023-06-22T02:44:38;11.48;;;5.10;;
21315;SDS011;10817;55.820;13.030;2023-06-22T02:47:05;10.55;;;5.07;;
21315;SDS011;10817;55.820;13.030;2023-06-22T02:49:33;10.05;;;5.03;;
21315;SDS011;10817;55.820;13.030;2023-06-22T02:52:00;14.45;;;4.47;;
21315;SDS011;10817;55.820;13.030;2023-06-22T02:54:28;7.45;;;4.63;;
21315;SDS011;10817;55.820;13.030;2023-06-22T02:56:56;9.32;;;4.93;;
21315;SDS011;10817;55.820;13.030;2023-06-22T02:59:24;11.00;;;5.20;;
21315;SDS011;10817;55.820;13.030;2023-06-22T03:01:59;11.55;;;5.15;;
21315;SDS011;10817;55.820;13.030;2023-06-22T03:04:30;9.48;;;4.45;;
21315;SDS011;10817;55.820;13.030;2023-06-22T03:06:58;6.65;;;4.68;;
21315;SDS011;10817;55.820;13.030;2023-06-22T03:09:26;9.93;;;5.07;;
21315;SDS011;10817;55.820;13.030;2023-06-22T03:11:57;10.90;;;5.57;;
21315;SDS011;10817;55.820;13.030;2023-06-22T03:14:31;8.75;;;4.70;;
21315;SDS011;10817;55.820;13.030;2023-06-22T03:16:58;7.75;;;4.60;;
21315;SDS011;10817;55.820;13.030;2023-06-22T03:19:28;9.25;;;4.90;;
21315;SDS011;10817;55.820;13.030;2023-06-22T03:21:56;9.48;;;5.10;;
21315;SDS011;10817;55.820;13.030;2023-06-22T03:24:24;8.93;;;5.28;;
21315;SDS011;10817;55.820;13.030;2023-06-22T03:26:54;10.13;;;5.07;;
21315;SDS011;10817;55.820;13.030;2023-06-22T03:29:24;9.88;;;5.22;;
21315;SDS011;10817;55.820;13.030;2023-06-22T03:31:51;7.50;;;4.85;;
21315;SDS011;10817;55.820;13.030;2023-06-22T03:34:18;9.57;;;4.95;;
21315;SDS011;10817;55.820;13.030;2023-06-22T03:36:46;11.05;;;4.68;;
21315;SDS011;10817;55.820;13.030;2023-06-22T03:39:13;8.95;;;5.32;;
21315;SDS011;10817;55.820;13.030;2023-06-22T03:41:40;8.43;;;5.22;;
21315;SDS011;10817;55.820;13.030;2023-06-22T03:44:08;6.70;;;4.43;;
21315;SDS011;10817;55.820;13.030;2023-06-22T03:46:38;8.93;;;5.03;;
21315;SDS011;10817;55.820;13.030;2023-06-22T03:49:06;9.07;;;4.10;;
21315;SDS011;10817;55.820;13.030;2023-06-22T03:51:33;6.95;;;4.38;;
21315;SDS011;10817;55.820;13.030;2023-06-22T03:54:00;9.23;;;4.63;;
21315;SDS011;10817;55.820;13.030;2023-06-22T03:56:27;7.20;;;4.63;;
21315;SDS011;10817;55.820;13.030;2023-06-22T03:58:55;6.65;;;4.20;;
21315;SDS011;10817;55.820;13.030;2023-06-22T04:01:22;12.07;;;5.15;;
21315;SDS011;10817;55.820;13.030;2023-06-22T04:03:50;7.00;;;4.85;;
21315;SDS011;10817;55.820;13.030;2023-06-22T04:06:18;9.05;;;5.10;;
21315;SDS011;10817;55.820;13.030;2023-06-22T04:08:45;10.30;;;4.75;;
21315;SDS011;10817;55.820;13.030;2023-06-22T04:11:16;9.88;;;4.47;;
21315;SDS011;10817;55.820;13.030;2023-06-22T04:13:43;13.20;;;4.03;;
21315;SDS011;10817;55.820;13.030;2023-06-22T04:16:11;7.47;;;4.30;;
21315;SDS011;10817;55.820;13.030;2023-06-22T04:18:38;7.13;;;3.85;;
21315;SDS011;10817;55.820;13.030;2023-06-22T04:21:08;6.88;;;3.90;;
21315;SDS011;10817;55.820;13.030;2023-06-22T04:23:35;8.27;;;4.32;;
21315;SDS011;10817;55.820;13.030;2023-06-22T04:26:02;11.50;;;4.70;;
21315;SDS011;10817;55.820;13.030;2023-06-22T04:28:29;10.00;;;4.22;;
21315;SDS011;10817;55.820;13.030;2023-06-22T04:31:00;6.53;;;3.95;;
21315;SDS011;10817;55.820;13.030;2023-06-22T04:33:27;7.75;;;3.92;;
21315;SDS011;10817;55.820;13.030;2023-06-22T04:35:55;7.38;;;4.03;;
21315;SDS011;10817;55.820;13.030;2023-06-22T04:38:24;7.20;;;4.10;;
21315;SDS011;10817;55.820;13.030;2023-06-22T04:40:51;9.43;;;4.10;;
21315;SDS011;10817;55.820;13.030;2023-06-22T04:43:19;10.02;;;4.15;;
21315;SDS011;10817;55.820;13.030;2023-06-22T04:45:46;8.18;;;3.80;;
21315;SDS011;10817;55.820;13.030;2023-06-22T04:48:17;9.02;;;3.88;;
21315;SDS011;10817;55.820;13.030;2023-06-22T04:50:44;8.07;;;3.85;;
21315;SDS011;10817;55.820;13.030;2023-06-22T04:53:12;8.20;;;4.20;;
21315;SDS011;10817;55.820;13.030;2023-06-22T04:55:40;14.52;;;4.70;;
21315;SDS011;10817;55.820;13.030;2023-06-22T04:58:10;8.48;;;3.78;;
21315;SDS011;10817;55.820;13.030;2023-06-22T05:00:38;10.73;;;4.65;;
21315;SDS011;10817;55.820;13.030;2023-06-22T05:03:05;7.97;;;4.28;;
21315;SDS011;10817;55.820;13.030;2023-06-22T05:05:36;9.75;;;4.07;;
21315;SDS011;10817;55.820;13.030;2023-06-22T05:08:03;9.52;;;3.88;;
21315;SDS011;10817;55.820;13.030;2023-06-22T05:10:32;8.82;;;3.80;;
21315;SDS011;10817;55.820;13.030;2023-06-22T05:13:01;8.07;;;3.63;;
21315;SDS011;10817;55.820;13.030;2023-06-22T05:15:28;6.53;;;3.40;;
21315;SDS011;10817;55.820;13.030;2023-06-22T05:17:58;10.73;;;3.88;;
21315;SDS011;10817;55.820;13.030;2023-06-22T05:20:30;7.63;;;3.30;;
21315;SDS011;10817;55.820;13.030;2023-06-22T05:22:58;5.53;;;3.40;;
21315;SDS011;10817;55.820;13.030;2023-06-22T05:25:28;6.93;;;3.40;;
21315;SDS011;10817;55.820;13.030;2023-06-22T05:27:57;9.93;;;3.42;;
21315;SDS011;10817;55.820;13.030;2023-06-22T05:30:26;8.50;;;3.40;;
21315;SDS011;10817;55.820;13.030;2023-06-22T05:32:54;5.75;;;3.60;;
21315;SDS011;10817;55.820;13.030;2023-06-22T05:35:21;5.68;;;3.60;;
21315;SDS011;10817;55.820;13.030;2023-06-22T05:37:48;9.13;;;4.00;;
21315;SDS011;10817;55.820;13.030;2023-06-22T05:40:16;7.00;;;3.60;;
21315;SDS011;10817;55.820;13.030;2023-06-22T05:42:43;11.15;;;3.42;;
21315;SDS011;10817;55.820;13.030;2023-06-22T05:45:10;4.43;;;2.95;;
21315;SDS011;10817;55.820;13.030;2023-06-22T05:47:39;7.40;;;3.60;;
21315;SDS011;10817;55.820;13.030;2023-06-22T05:50:06;8.10;;;3.10;;
21315;SDS011;10817;55.820;13.030;2023-06-22T05:52:34;13.07;;;4.13;;
21315;SDS011;10817;55.820;13.030;2023-06-22T05:55:02;5.35;;;3.05;;
21315;SDS011;10817;55.820;13.030;2023-06-22T05:57:29;8.18;;;3.55;;
21315;SDS011;10817;55.820;13.030;2023-06-22T05:59:56;7.72;;;3.47;;
21315;SDS011;10817;55.820;13.030;2023-06-22T06:02:23;7.50;;;3.58;;
21315;SDS011;10817;55.820;13.030;2023-06-22T06:04:52;6.63;;;3.45;;
21315;SDS011;10817;55.820;13.030;2023-06-22T06:07:20;7.68;;;3.70;;
21315;SDS011;10817;55.820;13.030;2023-06-22T06:09:47;6.82;;;3.65;;
21315;SDS011;10817;55.820;13.030;2023-06-22T06:12:14;6.13;;;2.88;;
21315;SDS011;10817;55.820;13.030;2023-06-22T06:14:41;4.85;;;2.95;;
21315;SDS011;10817;55.820;13.030;2023-06-22T06:17:09;6.85;;;3.70;;
21315;SDS011;10817;55.820;13.030;2023-06-22T06:19:36;7.78;;;3.72;;
21315;SDS011;10817;55.820;13.030;2023-06-22T06:22:04;9.77;;;3.42;;
21315;SDS011;10817;55.820;13.030;2023-06-22T06:24:32;6.90;;;3.13;;
21315;SDS011;10817;55.820;13.030;2023-06-22T06:27:00;6.10;;;2.92;;
21315;SDS011;10817;55.820;13.030;2023-06-22T06:29:29;7.22;;;2.80;;
21315;SDS011;10817;55.820;13.030;2023-06-22T06:31:57;7.35;;;3.03;;
21315;SDS011;10817;55.820;13.030;2023-06-22T06:34:24;7.72;;;3.50;;
21315;SDS011;10817;55.820;13.030;2023-06-22T06:36:51;7.55;;;2.83;;
21315;SDS011;10817;55.820;13.030;2023-06-22T06:39:20;5.88;;;2.85;;
21315;SDS011;10817;55.820;13.030;2023-06-22T06:41:47;4.80;;;2.78;;
21315;SDS011;10817;55.820;13.030;2023-06-22T06:44:14;8.65;;;3.15;;
21315;SDS011;10817;55.820;13.030;2023-06-22T06:46:42;4.63;;;2.85;;
21315;SDS011;10817;55.820;13.030;2023-06-22T06:49:09;5.57;;;3.20;;
21315;SDS011;10817;55.820;13.030;2023-06-22T06:51:36;6.10;;;3.25;;
21315;SDS011;10817;55.820;13.030;2023-06-22T06:54:03;6.55;;;3.15;;
21315;SDS011;10817;55.820;13.030;2023-06-22T06:56:32;6.55;;;3.47;;
21315;SDS011;10817;55.820;13.030;2023-06-22T06:58:59;9.10;;;3.20;;
21315;SDS011;10817;55.820;13.030;2023-06-22T07:01:27;7.75;;;3.20;;
21315;SDS011;10817;55.820;13.030;2023-06-22T07:03:58;11.55;;;3.00;;
21315;SDS011;10817;55.820;13.030;2023-06-22T07:06:26;6.10;;;2.90;;
21315;SDS011;10817;55.820;13.030;2023-06-22T07:08:57;5.30;;;2.83;;
21315;SDS011;10817;55.820;13.030;2023-06-22T07:11:24;8.20;;;3.38;;
21315;SDS011;10817;55.820;13.030;2023-06-22T07:13:53;4.18;;;2.80;;
21315;SDS011;10817;55.820;13.030;2023-06-22T07:16:20;6.22;;;3.40;;
21315;SDS011;10817;55.820;13.030;2023-06-22T07:18:48;5.03;;;3.13;;
21315;SDS011;10817;55.820;13.030;2023-06-22T07:21:15;8.82;;;3.28;;
21315;SDS011;10817;55.820;13.030;2023-06-22T07:23:43;6.13;;;3.15;;
21315;SDS011;10817;55.820;13.030;2023-06-22T07:26:10;5.80;;;3.05;;
21315;SDS011;10817;55.820;13.030;2023-06-22T07:28:37;6.30;;;3.30;;
21315;SDS011;10817;55.820;13.030;2023-06-22T07:31:07;9.88;;;4.30;;
21315;SDS011;10817;55.820;13.030;2023-06-22T07:33:34;7.25;;;3.40;;
21315;SDS011;10817;55.820;13.030;2023-06-22T07:36:10;8.40;;;2.97;;
21315;SDS011;10817;55.820;13.030;2023-06-22T07:38:55;6.00;;;2.97;;
21315;SDS011;10817;55.820;13.030;2023-06-22T07:41:22;7.95;;;3.13;;
21315;SDS011;10817;55.820;13.030;2023-06-22T07:43:52;6.40;;;3.42;;
21315;SDS011;10817;55.820;13.030;2023-06-22T07:46:23;5.85;;;3.00;;
21315;SDS011;10817;55.820;13.030;2023-06-22T07:48:51;4.88;;;3.17;;
21315;SDS011;10817;55.820;13.030;2023-06-22T07:51:18;5.75;;;3.13;;
21315;SDS011;10817;55.820;13.030;2023-06-22T07:53:45;5.03;;;3.25;;
21315;SDS011;10817;55.820;13.030;2023-06-22T07:56:12;5.03;;;3.30;;
21315;SDS011;10817;55.820;13.030;2023-06-22T07:58:44;8.73;;;3.40;;
21315;SDS011;10817;55.820;13.030;2023-06-22T08:01:11;5.88;;;3.53;;
21315;SDS011;10817;55.820;13.030;2023-06-22T08:03:40;8.85;;;3.47;;
21315;SDS011;10817;55.820;13.030;2023-06-22T08:06:08;6.60;;;3.53;;
21315;SDS011;10817;55.820;13.030;2023-06-22T08:08:35;7.18;;;3.53;;
21315;SDS011;10817;55.820;13.030;2023-06-22T08:11:02;8.30;;;3.40;;
21315;SDS011;10817;55.820;13.030;2023-06-22T08:13:30;8.55;;;3.50;;
21315;SDS011;10817;55.820;13.030;2023-06-22T08:15:57;5.22;;;3.05;;
21315;SDS011;10817;55.820;13.030;2023-06-22T08:18:25;11.43;;;3.05;;
21315;SDS011;10817;55.820;13.030;2023-06-22T08:20:53;4.80;;;3.08;;
21315;SDS011;10817;55.820;13.030;2023-06-22T08:23:21;6.05;;;3.05;;
21315;SDS011;10817;55.820;13.030;2023-06-22T08:25:48;10.27;;;3.20;;
21315;SDS011;10817;55.820;13.030;2023-06-22T08:28:17;5.10;;;2.90;;
21315;SDS011;10817;55.820;13.030;2023-06-22T08:30:45;7.88;;;3.30;;
21315;SDS011;10817;55.820;13.030;2023-06-22T08:33:12;5.15;;;2.97;;
21315;SDS011;10817;55.820;13.030;2023-06-22T08:35:39;9.65;;;3.58;;
21315;SDS011;10817;55.820;13.030;2023-06-22T08:38:08;8.73;;;3.05;;
21315;SDS011;10817;55.820;13.030;2023-06-22T08:40:35;5.07;;;2.60;;
21315;SDS011;10817;55.820;13.030;2023-06-22T08:43:03;4.90;;;2.67;;
21315;SDS011;10817;55.820;13.030;2023-06-22T08:45:30;6.47;;;3.08;;
21315;SDS011;10817;55.820;13.030;2023-06-22T08:47:57;7.25;;;2.60;;
21315;SDS011;10817;55.820;13.030;2023-06-22T08:50:24;6.72;;;3.05;;
21315;SDS011;10817;55.820;13.030;2023-06-22T08:52:52;15.45;;;4.30;;
21315;SDS011;10817;55.820;13.030;2023-06-22T08:55:21;6.70;;;2.75;;
21315;SDS011;10817;55.820;13.030;2023-06-22T08:57:48;3.97;;;2.65;;
21315;SDS011;10817;55.820;13.030;2023-06-22T09:00:18;6.22;;;2.90;;
21315;SDS011;10817;55.820;13.030;2023-06-22T09:02:46;6.05;;;2.58;;
21315;SDS011;10817;55.820;13.030;2023-06-22T09:05:14;10.48;;;2.50;;
21315;SDS011;10817;55.820;13.030;2023-06-22T09:07:43;4.35;;;2.20;;
21315;SDS011;10817;55.820;13.030;2023-06-22T09:10:11;3.55;;;2.38;;
21315;SDS011;10817;55.820;13.030;2023-06-22T09:12:39;6.20;;;2.60;;
21315;SDS011;10817;55.820;13.030;2023-06-22T09:15:07;4.53;;;2.40;;
21315;SDS011;10817;55.820;13.030;2023-06-22T09:17:35;6.38;;;2.78;;
21315;SDS011;10817;55.820;13.030;2023-06-22T09:20:03;3.70;;;2.08;;
21315;SDS011;10817;55.820;13.030;2023-06-22T09:22:31;4.20;;;2.65;;
21315;SDS011;10817;55.820;13.030;2023-06-22T09:24:58;5.35;;;2.50;;
21315;SDS011;10817;55.820;13.030;2023-06-22T09:27:26;3.70;;;2.15;;
21315;SDS011;10817;55.820;13.030;2023-06-22T09:30:09;5.13;;;2.20;;
21315;SDS011;10817;55.820;13.030;2023-06-22T09:32:36;7.55;;;2.47;;
21315;SDS011;10817;55.820;13.030;2023-06-22T09:35:04;6.15;;;2.67;;
21315;SDS011;10817;55.820;13.030;2023-06-22T09:37:33;5.32;;;2.28;;
21315;SDS011;10817;55.820;13.030;2023-06-22T09:40:01;5.90;;;2.65;;
21315;SDS011;10817;55.820;13.030;2023-06-22T09:42:32;5.20;;;2.60;;
21315;SDS011;10817;55.820;13.030;2023-06-22T09:45:02;7.32;;;2.25;;
21315;SDS011;10817;55.820;13.030;2023-06-22T09:47:32;4.18;;;2.63;;
21315;SDS011;10817;55.820;13.030;2023-06-22T09:49:59;9.02;;;2.33;;
21315;SDS011;10817;55.820;13.030;2023-06-22T09:52:29;5.10;;;2.55;;
21315;SDS011;10817;55.820;13.030;2023-06-22T09:54:56;4.03;;;1.98;;
21315;SDS011;10817;55.820;13.030;2023-06-22T09:57:24;4.13;;;1.90;;
21315;SDS011;10817;55.820;13.030;2023-06-22T09:59:55;3.00;;;1.73;;
21315;SDS011;10817;55.820;13.030;2023-06-22T10:02:25;3.45;;;1.88;;
21315;SDS011;10817;55.820;13.030;2023-06-22T10:04:54;2.58;;;1.90;;
21315;SDS011;10817;55.820;13.030;2023-06-22T10:07:21;5.40;;;1.73;;
21315;SDS011;10817;55.820;13.030;2023-06-22T10:09:49;3.55;;;1.83;;
21315;SDS011;10817;55.820;13.030;2023-06-22T10:12:20;4.47;;;2.10;;
21315;SDS011;10817;55.820;13.030;2023-06-22T10:14:48;5.35;;;1.70;;
21315;SDS011;10817;55.820;13.030;2023-06-22T10:17:15;3.95;;;1.50;;
21315;SDS011;10817;55.820;13.030;2023-06-22T10:19:42;3.60;;;1.90;;
21315;SDS011;10817;55.820;13.030;2023-06-22T10:22:11;3.70;;;1.65;;
21315;SDS011;10817;55.820;13.030;2023-06-22T10:24:38;2.92;;;1.60;;
21315;SDS011;10817;55.820;13.030;2023-06-22T10:27:09;4.80;;;1.45;;
21315;SDS011;10817;55.820;13.030;2023-06-22T10:29:36;2.00;;;1.35;;
21315;SDS011;10817;55.820;13.030;2023-06-22T10:32:04;3.05;;;1.60;;
21315;SDS011;10817;55.820;13.030;2023-06-22T10:34:32;3.45;;;1.80;;
21315;SDS011;10817;55.820;13.030;2023-06-22T10:37:00;3.30;;;1.33;;
21315;SDS011;10817;55.820;13.030;2023-06-22T10:39:28;3.08;;;1.27;;
21315;SDS011;10817;55.820;13.030;2023-06-22T10:41:56;2.08;;;1.45;;
21315;SDS011;10817;55.820;13.030;2023-06-22T10:44:25;3.00;;;1.58;;
21315;SDS011;10817;55.820;13.030;2023-06-22T10:46:55;3.25;;;1.60;;
21315;SDS011;10817;55.820;13.030;2023-06-22T10:49:23;2.67;;;1.50;;
21315;SDS011;10817;55.820;13.030;2023-06-22T10:51:50;3.97;;;1.63;;
21315;SDS011;10817;55.820;13.030;2023-06-22T10:54:17;3.35;;;1.75;;
21315;SDS011;10817;55.820;13.030;2023-06-22T10:56:46;2.95;;;1.80;;
21315;SDS011;10817;55.820;13.030;2023-06-22T10:59:13;3.92;;;1.48;;
21315;SDS011;10817;55.820;13.030;2023-06-22T11:01:41;3.25;;;1.73;;
21315;SDS011;10817;55.820;13.030;2023-06-22T11:04:08;2.45;;;1.70;;
21315;SDS011;10817;55.820;13.030;2023-06-22T11:06:35;6.68;;;1.83;;
21315;SDS011;10817;55.820;13.030;2023-06-22T11:09:02;2.47;;;1.42;;
21315;SDS011;10817;55.820;13.030;2023-06-22T11:11:30;2.53;;;1.40;;
21315;SDS011;10817;55.820;13.030;2023-06-22T11:13:58;2.05;;;1.30;;
21315;SDS011;10817;55.820;13.030;2023-06-22T11:16:26;4.40;;;1.70;;
21315;SDS011;10817;55.820;13.030;2023-06-22T11:18:53;2.42;;;1.38;;
21315;SDS011;10817;55.820;13.030;2023-06-22T11:21:20;3.00;;;1.70;;
21315;SDS011;10817;55.820;13.030;2023-06-22T11:23:47;4.50;;;1.48;;
21315;SDS011;10817;55.820;13.030;2023-06-22T11:26:15;3.55;;;1.30;;
21315;SDS011;10817;55.820;13.030;2023-06-22T11:28:42;2.97;;;1.75;;
21315;SDS011;10817;55.820;13.030;2023-06-22T11:31:11;2.50;;;1.60;;
21315;SDS011;10817;55.820;13.030;2023-06-22T11:33:38;5.13;;;1.55;;
21315;SDS011;10817;55.820;13.030;2023-06-22T11:36:06;3.05;;;1.45;;
21315;SDS011;10817;55.820;13.030;2023-06-22T11:38:34;1.45;;;1.35;;
21315;SDS011;10817;55.820;13.030;2023-06-22T11:41:05;2.47;;;1.50;;
21315;SDS011;10817;55.820;13.030;2023-06-22T11:43:32;4.72;;;1.50;;
21315;SDS011;10817;55.820;13.030;2023-06-22T11:46:00;2.95;;;1.50;;
21315;SDS011;10817;55.820;13.030;2023-06-22T11:48:29;2.45;;;1.48;;
21315;SDS011;10817;55.820;13.030;2023-06-22T11:50:57;2.40;;;1.70;;
21315;SDS011;10817;55.820;13.030;2023-06-22T11:53:25;2.20;;;1.48;;
21315;SDS011;10817;55.820;13.030;2023-06-22T11:55:53;4.50;;;1.50;;
21315;SDS011;10817;55.820;13.030;2023-06-22T11:58:20;3.45;;;1.58;;
21315;SDS011;10817;55.820;13.030;2023-06-22T12:00:48;3.42;;;1.52;;
21315;SDS011;10817;55.820;13.030;2023-06-22T12:03:18;2.95;;;1.48;;
21315;SDS011;10817;55.820;13.030;2023-06-22T12:05:47;1.92;;;1.40;;
21315;SDS011;10817;55.820;13.030;2023-06-22T12:08:15;2.88;;;1.58;;
21315;SDS011;10817;55.820;13.030;2023-06-22T12:10:42;3.90;;;1.33;;
21315;SDS011;10817;55.820;13.030;2023-06-22T12:13:09;2.58;;;1.55;;
21315;SDS011;10817;55.820;13.030;2023-06-22T12:15:37;2.25;;;1.50;;
21315;SDS011;10817;55.820;13.030;2023-06-22T12:18:05;1.92;;;1.40;;
21315;SDS011;10817;55.820;13.030;2023-06-22T12:20:33;2.50;;;1.30;;
21315;SDS011;10817;55.820;13.030;2023-06-22T12:23:02;2.50;;;1.38;;
21315;SDS011;10817;55.820;13.030;2023-06-22T12:25:29;3.78;;;1.50;;
21315;SDS011;10817;55.820;13.030;2023-06-22T12:27:57;2.33;;;1.67;;
21315;SDS011;10817;55.820;13.030;2023-06-22T12:30:24;2.85;;;1.60;;
21315;SDS011;10817;55.820;13.030;2023-06-22T13:21:01;2.95;;;1.60;;
21315;SDS011;10817;55.820;13.030;2023-06-22T13:25:45;2.15;;;1.45;;
21315;SDS011;10817;55.820;13.030;2023-06-22T13:28:06;1.83;;;1.60;;
21315;SDS011;10817;55.820;13.030;2023-06-22T13:45:26;3.28;;;1.90;;
21315;SDS011;10817;55.820;13.030;2023-06-22T13:48:01;1.85;;;1.52;;
21315;SDS011;10817;55.820;13.030;2023-06-22T13:52:37;2.33;;;1.50;;
21315;SDS011;10817;55.820;13.030;2023-06-22T13:54:46;2.05;;;1.48;;
21315;SDS011;10817;55.820;13.030;2023-06-22T13:58:07;1.73;;;1.50;;
21315;SDS011;10817;55.820;13.030;2023-06-22T14:00:48;4.00;;;1.55;;
21315;SDS011;10817;55.820;13.030;2023-06-22T14:05:29;3.13;;;1.73;;
21315;SDS011;10817;55.820;13.030;2023-06-22T14:07:41;3.45;;;1.80;;
21315;SDS011;10817;55.820;13.030;2023-06-22T14:11:05;2.45;;;1.70;;
21315;SDS011;10817;55.820;13.030;2023-06-22T14:13:32;2.17;;;1.38;;
21315;SDS011;10817;55.820;13.030;2023-06-22T14:16:02;3.30;;;1.60;;
21315;SDS011;10817;55.820;13.030;2023-06-22T14:18:30;2.47;;;1.73;;
21315;SDS011;10817;55.820;13.030;2023-06-22T14:20:58;3.00;;;1.50;;
21315;SDS011;10817;55.820;13.030;2023-06-22T14:23:25;2.33;;;1.55;;
21315;SDS011;10817;55.820;13.030;2023-06-22T14:25:54;4.22;;;1.55;;
21315;SDS011;10817;55.820;13.030;2023-06-22T14:28:22;3.63;;;1.67;;
21315;SDS011;10817;55.820;13.030;2023-06-22T14:33:40;3.28;;;1.70;;
21315;SDS011;10817;55.820;13.030;2023-06-22T14:36:07;3.22;;;1.55;;
21315;SDS011;10817;55.820;13.030;2023-06-22T14:38:37;1.95;;;1.50;;
21315;SDS011;10817;55.820;13.030;2023-06-22T14:41:05;1.83;;;1.60;;
21315;SDS011;10817;55.820;13.030;2023-06-22T14:43:32;1.60;;;1.50;;
21315;SDS011;10817;55.820;13.030;2023-06-22T14:46:02;4.70;;;1.77;;
21315;SDS011;10817;55.820;13.030;2023-06-22T14:48:32;2.40;;;1.70;;
21315;SDS011;10817;55.820;13.030;2023-06-22T14:51:03;3.53;;;1.45;;
21315;SDS011;10817;55.820;13.030;2023-06-22T14:53:31;3.47;;;1.80;;
21315;SDS011;10817;55.820;13.030;2023-06-22T14:56:01;4.38;;;1.65;;
21315;SDS011;10817;55.820;13.030;2023-06-22T14:58:33;2.10;;;1.40;;
21315;SDS011;10817;55.820;13.030;2023-06-22T15:01:01;2.10;;;1.50;;
21315;SDS011;10817;55.820;13.030;2023-06-22T15:03:36;2.30;;;1.65;;
21315;SDS011;10817;55.820;13.030;2023-06-22T15:06:19;2.75;;;1.75;;
21315;SDS011;10817;55.820;13.030;2023-06-22T15:08:46;3.38;;;1.63;;
21315;SDS011;10817;55.820;13.030;2023-06-22T15:11:13;3.75;;;1.60;;
21315;SDS011;10817;55.820;13.030;2023-06-22T15:13:41;5.40;;;1.50;;
21315;SDS011;10817;55.820;13.030;2023-06-22T15:16:08;1.98;;;1.58;;
21315;SDS011;10817;55.820;13.030;2023-06-22T15:18:36;2.00;;;1.50;;
21315;SDS011;10817;55.820;13.030;2023-06-22T15:21:06;2.03;;;1.30;;
21315;SDS011;10817;55.820;13.030;2023-06-22T15:23:34;2.13;;;1.60;;
21315;SDS011;10817;55.820;13.030;2023-06-22T15:26:02;2.33;;;1.60;;
21315;SDS011;10817;55.820;13.030;2023-06-22T15:28:31;2.95;;;1.60;;
21315;SDS011;10817;55.820;13.030;2023-06-22T15:31:02;2.80;;;1.70;;
21315;SDS011;10817;55.820;13.030;2023-06-22T15:33:31;1.40;;;1.30;;
21315;SDS011;10817;55.820;13.030;2023-06-22T15:35:59;2.92;;;1.73;;
21315;SDS011;10817;55.820;13.030;2023-06-22T15:38:29;2.25;;;1.48;;
21315;SDS011;10817;55.820;13.030;2023-06-22T15:40:58;2.63;;;1.90;;
21315;SDS011;10817;55.820;13.030;2023-06-22T15:43:28;2.22;;;1.60;;
21315;SDS011;10817;55.820;13.030;2023-06-22T15:45:55;2.88;;;1.50;;
21315;SDS011;10817;55.820;13.030;2023-06-22T15:48:23;2.05;;;1.48;;
21315;SDS011;10817;55.820;13.030;2023-06-22T15:50:50;2.17;;;1.75;;
21315;SDS011;10817;55.820;13.030;2023-06-22T15:53:17;2.15;;;1.58;;